AirNav   Pilot Hours Calculator
 
 889 users online  

LA41 Dupuis Airport
Breaux Bridge, Louisiana, USA

GOING TO BREAUX BRIDGE?


FAA INFORMATION EFFECTIVE 08 OCTOBER 2020

Location

FAA Identifier: LA41
Lat/Long: 30-18-38.4500N 091-56-23.7350W
30-18.640833N 091-56.395583W
30.3106806,-91.9399264
(estimated)
Elevation: 25 ft. / 8 m (estimated)
From city: 2 miles N of BREAUX BRIDGE, LA
Time zone: UTC -5 (UTC -6 during Standard Time)
Zip code: 70517

Airport Operations

Airport use: Private use. Permission required prior to landing
Activation date: 06/2007
Control tower: no
ARTCC: HOUSTON CENTER
FSS: DE RIDDER FLIGHT SERVICE STATION
Attendance: UNATNDD
Wind indicator: yes
Segmented circle: no

Airport Communications

WX ASOS at LFT (7 nm S): 134.05 ((337)262-2757)
WX ASOS at ARA (17 nm S): 133.325 (337-365-0128)
WX AWOS-3PT at OPL (17 nm NW): 118.775 (337-948-8560)

Nearby radio navigation aids

VOR radial/distance  VOR name  Freq  Var
LFTr018/7.5LAFAYETTE VORTAC109.8003E
LSUr247/35.0FIGHTING TIGER VORTAC116.5006E

 
NDB name  Hdg/Dist  Freq  Var  ID
LAFFS305/2.137503ELF .-.. ..-.
ABBEVILLE030/17.723002EBNZ -... -. --..
DURALDE118/30.226302EECY . -.-. -.--

Airport Services

Runway Information

Runway 12/30

Dimensions: 2700 x 150 ft. / 823 x 46 m
Surface: turf
RUNWAY 12  RUNWAY 30
Latitude: 30-18.760333N30-18.521333N
Longitude: 091-56.612167W091-56.179000W
Elevation: 15.0 ft.25.0 ft.
Traffic pattern: leftleft
Runway heading: 123 true303 true
Obstructions: 49 ft. trees, 324 ft. from runway, 6:1 slope to clear32 ft. pline, 159 ft. from runway, 118 ft. right of centerline, 4:1 slope to clear

Airport Ownership and Management from official FAA records

Ownership: Privately-owned
Owner: CHARLES DUPUIS
1033 CHARLES DUPUIS RD
BREAUX BRIDGE, LA 70517
Phone 337-667-7765
Manager: CHARLES DUPUIS
1033 CHARLES DUPUIS RD
BREAUX BRIDGE, LA 70517
Phone 337-667-7765

Airport Operational Statistics

Aircraft based on the field: 2
Single engine airplanes: 2
    

Additional Remarks

FOR CD CTC LAFAYETTE APCH AT 337-262-2729, WHEN APCH CLSD CTC HOUSTON ARTCC AT 281-230-5622.
6 FT FENCE OFF THE APCH END OF RWY 30.

Instrument Procedures

There are no published instrument procedures at LA41.

Some nearby airports with instrument procedures:

KLFT - Lafayette Regional Airport/Paul Fournet Field (7 nm S)
KARA - Acadiana Regional Airport (17 nm S)
KOPL - St Landry Parish Airport-Ahart Field (17 nm NW)
KIYA - Abbeville Chris Crusta Memorial Airport (21 nm S)
4R7 - Eunice Airport (27 nm W)
 
Loc | Ops | Rwys | IFR | FBO | Links
Com | Nav | Svcs | Stats | Notes
Aerial photo
No photo
 
Sectional chart

 
Airport distance calculator
Flying to Dupuis Airport? Find the distance to fly.

From to LA41

Sunrise and sunset
Times for 30-Oct-2020
 Local
(UTC-5)
 Zulu
(UTC)
Morning civil twilight06:5811:58
Sunrise07:2212:22
Sunset18:2023:20
Evening civil twilight18:4523:45

Current date and time
Zulu (UTC)  31-Oct-2020 02:06:00
Local (UTC-5)  30-Oct-2020 21:06:00
 
METAR
KLFT 
7nm SW 
310153Z AUTO 01006KT 10SM CLR 13/06 A3021 RMK AO2 SLP229 T01280061
KARA 
17nm S 
310153Z AUTO 01005KT 10SM CLR 12/08 A3021 RMK AO2 SLP230 T01170078
KOPL 
17nm NW 
310135Z AUTO 36008KT 10SM CLR 12/07 A3022 RMK AO2 T01170070
TAF
KLFT 
7nm SW 
301725Z 3018/3118 05007KT P6SM SKC FM310000 01003KT P6SM SKC FM311500 05003KT P6SM SKC
KARA 
17nm S 
301725Z 3018/3118 06009KT P6SM SKC FM310000 01005KT P6SM SKC FM311500 06006KT P6SM SKC
NOTAMs
Click for the latest NOTAMs
NOTAMs are issued by the DoD/FAA and will open in a separate window not controlled by AirNav.

 

 
 

Would you like to see your business listed on this page?

 If your business provides an interesting product or service to pilots, flight crews, aircraft, or users of the Dupuis Airport, you should consider listing it here.  To start the listing process, click on the button below
 
Add a business
 

Other Pages about Dupuis Airport

Update a link
 
Copyright © AirNav, LLC. All rights reserved. Privacy Policy  Contact